sensor_id;sensor_type;location;lat;lon;timestamp;P1;durP1;ratioP1;P2;durP2;ratioP2
17854;SDS011;9053;53.358;6.382;2023-04-06T00:00:23;8.83;;;6.70;;
17854;SDS011;9053;53.358;6.382;2023-04-06T00:02:58;8.87;;;6.87;;
17854;SDS011;9053;53.358;6.382;2023-04-06T00:05:28;10.43;;;6.37;;
17854;SDS011;9053;53.358;6.382;2023-04-06T00:07:58;8.27;;;6.47;;
17854;SDS011;9053;53.358;6.382;2023-04-06T00:10:28;9.10;;;6.43;;
17854;SDS011;9053;53.358;6.382;2023-04-06T00:12:57;8.77;;;6.57;;
17854;SDS011;9053;53.358;6.382;2023-04-06T00:15:28;8.93;;;6.93;;
17854;SDS011;9053;53.358;6.382;2023-04-06T00:18:01;8.37;;;6.43;;
17854;SDS011;9053;53.358;6.382;2023-04-06T00:20:32;9.20;;;7.00;;
17854;SDS011;9053;53.358;6.382;2023-04-06T00:23:02;7.33;;;6.27;;
17854;SDS011;9053;53.358;6.382;2023-04-06T00:25:32;9.00;;;7.20;;
17854;SDS011;9053;53.358;6.382;2023-04-06T00:28:02;9.40;;;6.60;;
17854;SDS011;9053;53.358;6.382;2023-04-06T00:30:32;8.70;;;6.90;;
17854;SDS011;9053;53.358;6.382;2023-04-06T00:33:04;9.03;;;7.10;;
17854;SDS011;9053;53.358;6.382;2023-04-06T00:35:36;9.97;;;6.93;;
17854;SDS011;9053;53.358;6.382;2023-04-06T00:38:06;9.57;;;7.33;;
17854;SDS011;9053;53.358;6.382;2023-04-06T00:40:36;8.50;;;6.87;;
17854;SDS011;9053;53.358;6.382;2023-04-06T00:43:06;10.17;;;7.27;;
17854;SDS011;9053;53.358;6.382;2023-04-06T00:45:36;9.33;;;6.57;;
17854;SDS011;9053;53.358;6.382;2023-04-06T00:48:10;7.90;;;6.90;;
17854;SDS011;9053;53.358;6.382;2023-04-06T00:50:40;9.23;;;6.53;;
17854;SDS011;9053;53.358;6.382;2023-04-06T00:53:09;8.50;;;6.43;;
17854;SDS011;9053;53.358;6.382;2023-04-06T00:55:40;10.03;;;6.80;;
17854;SDS011;9053;53.358;6.382;2023-04-06T00:58:10;9.23;;;6.93;;
17854;SDS011;9053;53.358;6.382;2023-04-06T01:00:40;9.30;;;6.40;;
17854;SDS011;9053;53.358;6.382;2023-04-06T01:03:14;8.83;;;7.47;;
17854;SDS011;9053;53.358;6.382;2023-04-06T01:05:45;9.13;;;8.07;;
17854;SDS011;9053;53.358;6.382;2023-04-06T01:08:15;10.77;;;7.43;;
17854;SDS011;9053;53.358;6.382;2023-04-06T01:10:45;9.83;;;7.43;;
17854;SDS011;9053;53.358;6.382;2023-04-06T01:13:15;9.50;;;7.10;;
17854;SDS011;9053;53.358;6.382;2023-04-06T01:15:46;7.97;;;6.97;;
17854;SDS011;9053;53.358;6.382;2023-04-06T01:18:18;9.20;;;6.80;;
17854;SDS011;9053;53.358;6.382;2023-04-06T01:20:54;9.00;;;7.17;;
17854;SDS011;9053;53.358;6.382;2023-04-06T01:23:30;9.67;;;7.40;;
17854;SDS011;9053;53.358;6.382;2023-04-06T01:26:00;8.33;;;7.07;;
17854;SDS011;9053;53.358;6.382;2023-04-06T01:28:30;9.73;;;7.23;;
17854;SDS011;9053;53.358;6.382;2023-04-06T01:31:07;11.77;;;8.00;;
17854;SDS011;9053;53.358;6.382;2023-04-06T01:33:38;9.73;;;6.90;;
17854;SDS011;9053;53.358;6.382;2023-04-06T01:36:08;11.30;;;7.93;;
17854;SDS011;9053;53.358;6.382;2023-04-06T01:38:41;9.37;;;7.37;;
17854;SDS011;9053;53.358;6.382;2023-04-06T01:41:11;10.13;;;7.13;;
17854;SDS011;9053;53.358;6.382;2023-04-06T01:43:41;8.57;;;7.47;;
17854;SDS011;9053;53.358;6.382;2023-04-06T01:46:11;9.73;;;8.00;;
17854;SDS011;9053;53.358;6.382;2023-04-06T01:48:41;10.10;;;7.53;;
17854;SDS011;9053;53.358;6.382;2023-04-06T01:51:11;10.87;;;8.20;;
17854;SDS011;9053;53.358;6.382;2023-04-06T01:53:44;9.67;;;7.70;;
17854;SDS011;9053;53.358;6.382;2023-04-06T01:56:14;10.27;;;7.93;;
17854;SDS011;9053;53.358;6.382;2023-04-06T01:58:44;11.03;;;7.70;;
17854;SDS011;9053;53.358;6.382;2023-04-06T02:01:14;10.37;;;8.00;;
17854;SDS011;9053;53.358;6.382;2023-04-06T02:03:47;9.67;;;7.87;;
17854;SDS011;9053;53.358;6.382;2023-04-06T02:06:18;12.00;;;8.80;;
17854;SDS011;9053;53.358;6.382;2023-04-06T02:08:50;12.20;;;8.90;;
17854;SDS011;9053;53.358;6.382;2023-04-06T02:11:20;10.57;;;8.33;;
17854;SDS011;9053;53.358;6.382;2023-04-06T02:13:50;12.93;;;9.27;;
17854;SDS011;9053;53.358;6.382;2023-04-06T02:16:19;11.23;;;8.47;;
17854;SDS011;9053;53.358;6.382;2023-04-06T02:18:49;13.27;;;8.50;;
17854;SDS011;9053;53.358;6.382;2023-04-06T02:21:20;13.23;;;9.23;;
17854;SDS011;9053;53.358;6.382;2023-04-06T02:23:52;12.53;;;8.67;;
17854;SDS011;9053;53.358;6.382;2023-04-06T02:26:23;11.60;;;8.37;;
17854;SDS011;9053;53.358;6.382;2023-04-06T02:28:53;11.23;;;8.97;;
17854;SDS011;9053;53.358;6.382;2023-04-06T02:31:23;11.73;;;8.67;;
17854;SDS011;9053;53.358;6.382;2023-04-06T02:33:53;11.33;;;8.53;;
17854;SDS011;9053;53.358;6.382;2023-04-06T02:36:23;10.27;;;8.53;;
17854;SDS011;9053;53.358;6.382;2023-04-06T02:38:55;10.57;;;8.17;;
17854;SDS011;9053;53.358;6.382;2023-04-06T02:41:25;12.53;;;9.37;;
17854;SDS011;9053;53.358;6.382;2023-04-06T02:43:55;10.63;;;8.70;;
17854;SDS011;9053;53.358;6.382;2023-04-06T02:46:25;11.80;;;8.73;;
17854;SDS011;9053;53.358;6.382;2023-04-06T02:48:55;12.60;;;9.67;;
17854;SDS011;9053;53.358;6.382;2023-04-06T02:51:26;12.63;;;9.47;;
17854;SDS011;9053;53.358;6.382;2023-04-06T02:53:59;12.53;;;9.70;;
17854;SDS011;9053;53.358;6.382;2023-04-06T02:56:29;14.93;;;9.67;;
17854;SDS011;9053;53.358;6.382;2023-04-06T02:58:58;11.43;;;9.40;;
17854;SDS011;9053;53.358;6.382;2023-04-06T03:01:30;12.47;;;9.83;;
17854;SDS011;9053;53.358;6.382;2023-04-06T03:04:00;12.13;;;9.03;;
17854;SDS011;9053;53.358;6.382;2023-04-06T03:06:30;13.00;;;8.93;;
17854;SDS011;9053;53.358;6.382;2023-04-06T03:09:02;10.53;;;8.77;;
17854;SDS011;9053;53.358;6.382;2023-04-06T03:11:33;13.87;;;10.43;;
17854;SDS011;9053;53.358;6.382;2023-04-06T03:14:03;12.33;;;9.43;;
17854;SDS011;9053;53.358;6.382;2023-04-06T03:16:33;13.80;;;9.73;;
17854;SDS011;9053;53.358;6.382;2023-04-06T03:19:03;13.37;;;9.57;;
17854;SDS011;9053;53.358;6.382;2023-04-06T03:21:33;13.20;;;9.77;;
17854;SDS011;9053;53.358;6.382;2023-04-06T03:24:06;14.10;;;9.63;;
17854;SDS011;9053;53.358;6.382;2023-04-06T03:26:39;13.50;;;9.50;;
17854;SDS011;9053;53.358;6.382;2023-04-06T03:29:09;13.43;;;9.43;;
17854;SDS011;9053;53.358;6.382;2023-04-06T03:31:39;12.53;;;10.20;;
17854;SDS011;9053;53.358;6.382;2023-04-06T03:34:10;14.00;;;10.27;;
17854;SDS011;9053;53.358;6.382;2023-04-06T03:36:40;13.17;;;9.90;;
17854;SDS011;9053;53.358;6.382;2023-04-06T03:39:12;11.53;;;9.67;;
17854;SDS011;9053;53.358;6.382;2023-04-06T03:41:42;11.50;;;9.00;;
17854;SDS011;9053;53.358;6.382;2023-04-06T03:44:12;11.30;;;9.30;;
17854;SDS011;9053;53.358;6.382;2023-04-06T03:46:43;13.57;;;9.53;;
17854;SDS011;9053;53.358;6.382;2023-04-06T03:49:13;13.30;;;10.30;;
17854;SDS011;9053;53.358;6.382;2023-04-06T03:51:43;13.27;;;9.83;;
17854;SDS011;9053;53.358;6.382;2023-04-06T03:54:15;13.10;;;10.37;;
17854;SDS011;9053;53.358;6.382;2023-04-06T03:56:45;13.13;;;9.63;;
17854;SDS011;9053;53.358;6.382;2023-04-06T03:59:15;13.27;;;10.10;;
17854;SDS011;9053;53.358;6.382;2023-04-06T04:01:45;12.23;;;9.43;;
17854;SDS011;9053;53.358;6.382;2023-04-06T04:04:15;14.53;;;9.70;;
17854;SDS011;9053;53.358;6.382;2023-04-06T04:06:44;12.73;;;9.30;;
17854;SDS011;9053;53.358;6.382;2023-04-06T04:09:17;14.83;;;10.63;;
17854;SDS011;9053;53.358;6.382;2023-04-06T04:11:47;13.07;;;9.73;;
17854;SDS011;9053;53.358;6.382;2023-04-06T04:14:17;11.93;;;9.70;;
17854;SDS011;9053;53.358;6.382;2023-04-06T04:16:48;11.83;;;9.47;;
17854;SDS011;9053;53.358;6.382;2023-04-06T04:19:18;17.47;;;10.70;;
17854;SDS011;9053;53.358;6.382;2023-04-06T04:21:48;12.43;;;9.23;;
17854;SDS011;9053;53.358;6.382;2023-04-06T04:24:20;14.13;;;9.87;;
17854;SDS011;9053;53.358;6.382;2023-04-06T04:26:50;14.17;;;10.13;;
17854;SDS011;9053;53.358;6.382;2023-04-06T04:29:20;13.73;;;10.43;;
17854;SDS011;9053;53.358;6.382;2023-04-06T04:31:50;14.90;;;10.40;;
17854;SDS011;9053;53.358;6.382;2023-04-06T04:34:20;11.93;;;9.93;;
17854;SDS011;9053;53.358;6.382;2023-04-06T04:36:51;14.37;;;10.90;;
17854;SDS011;9053;53.358;6.382;2023-04-06T04:39:27;14.27;;;9.40;;
17854;SDS011;9053;53.358;6.382;2023-04-06T04:41:57;12.93;;;9.83;;
17854;SDS011;9053;53.358;6.382;2023-04-06T04:44:27;14.07;;;10.27;;
17854;SDS011;9053;53.358;6.382;2023-04-06T04:46:57;15.10;;;9.97;;
17854;SDS011;9053;53.358;6.382;2023-04-06T04:49:27;12.60;;;10.33;;
17854;SDS011;9053;53.358;6.382;2023-04-06T04:51:57;14.33;;;10.40;;
17854;SDS011;9053;53.358;6.382;2023-04-06T04:54:29;12.47;;;9.97;;
17854;SDS011;9053;53.358;6.382;2023-04-06T04:56:59;14.23;;;10.17;;
17854;SDS011;9053;53.358;6.382;2023-04-06T04:59:29;11.87;;;9.23;;
17854;SDS011;9053;53.358;6.382;2023-04-06T05:01:59;13.40;;;9.93;;
17854;SDS011;9053;53.358;6.382;2023-04-06T05:04:29;13.33;;;10.00;;
17854;SDS011;9053;53.358;6.382;2023-04-06T05:07:03;12.73;;;9.97;;
17854;SDS011;9053;53.358;6.382;2023-04-06T05:09:36;13.63;;;10.17;;
17854;SDS011;9053;53.358;6.382;2023-04-06T05:12:06;12.57;;;9.27;;
17854;SDS011;9053;53.358;6.382;2023-04-06T05:14:37;14.07;;;10.30;;
17854;SDS011;9053;53.358;6.382;2023-04-06T05:17:08;13.33;;;10.33;;
17854;SDS011;9053;53.358;6.382;2023-04-06T05:19:38;12.47;;;9.57;;
17854;SDS011;9053;53.358;6.382;2023-04-06T05:22:08;13.20;;;9.73;;
17854;SDS011;9053;53.358;6.382;2023-04-06T05:24:40;13.67;;;9.77;;
17854;SDS011;9053;53.358;6.382;2023-04-06T05:27:10;14.03;;;9.97;;
17854;SDS011;9053;53.358;6.382;2023-04-06T05:29:40;13.17;;;10.10;;
17854;SDS011;9053;53.358;6.382;2023-04-06T05:32:10;13.43;;;10.20;;
17854;SDS011;9053;53.358;6.382;2023-04-06T05:34:40;12.07;;;9.03;;
17854;SDS011;9053;53.358;6.382;2023-04-06T05:37:10;13.87;;;9.87;;
17854;SDS011;9053;53.358;6.382;2023-04-06T05:39:42;14.33;;;10.50;;
17854;SDS011;9053;53.358;6.382;2023-04-06T05:42:12;13.00;;;10.77;;
17854;SDS011;9053;53.358;6.382;2023-04-06T05:44:42;12.47;;;9.63;;
17854;SDS011;9053;53.358;6.382;2023-04-06T05:47:12;12.90;;;9.80;;
17854;SDS011;9053;53.358;6.382;2023-04-06T05:49:42;14.17;;;10.13;;
17854;SDS011;9053;53.358;6.382;2023-04-06T05:52:12;13.23;;;9.83;;
17854;SDS011;9053;53.358;6.382;2023-04-06T05:54:45;13.20;;;9.33;;
17854;SDS011;9053;53.358;6.382;2023-04-06T05:57:15;13.07;;;10.17;;
17854;SDS011;9053;53.358;6.382;2023-04-06T05:59:45;14.67;;;9.67;;
17854;SDS011;9053;53.358;6.382;2023-04-06T06:02:15;14.33;;;10.53;;
17854;SDS011;9053;53.358;6.382;2023-04-06T06:04:46;13.70;;;10.70;;
17854;SDS011;9053;53.358;6.382;2023-04-06T06:07:16;15.03;;;11.00;;
17854;SDS011;9053;53.358;6.382;2023-04-06T06:09:48;13.67;;;9.80;;
17854;SDS011;9053;53.358;6.382;2023-04-06T06:12:18;13.07;;;9.20;;
17854;SDS011;9053;53.358;6.382;2023-04-06T06:14:49;11.57;;;9.23;;
17854;SDS011;9053;53.358;6.382;2023-04-06T06:17:19;13.50;;;9.70;;
17854;SDS011;9053;53.358;6.382;2023-04-06T06:19:49;12.00;;;9.23;;
17854;SDS011;9053;53.358;6.382;2023-04-06T06:22:19;12.23;;;9.47;;
17854;SDS011;9053;53.358;6.382;2023-04-06T06:24:53;13.07;;;10.37;;
17854;SDS011;9053;53.358;6.382;2023-04-06T06:27:22;13.40;;;10.20;;
17854;SDS011;9053;53.358;6.382;2023-04-06T06:29:52;10.53;;;8.97;;
17854;SDS011;9053;53.358;6.382;2023-04-06T06:32:23;11.70;;;9.07;;
17854;SDS011;9053;53.358;6.382;2023-04-06T06:34:53;12.17;;;8.73;;
17854;SDS011;9053;53.358;6.382;2023-04-06T06:37:23;12.33;;;9.40;;
17854;SDS011;9053;53.358;6.382;2023-04-06T06:39:59;11.27;;;8.63;;
17854;SDS011;9053;53.358;6.382;2023-04-06T06:42:29;11.00;;;8.77;;
17854;SDS011;9053;53.358;6.382;2023-04-06T06:44:59;9.87;;;8.70;;
17854;SDS011;9053;53.358;6.382;2023-04-06T06:47:29;12.60;;;9.07;;
17854;SDS011;9053;53.358;6.382;2023-04-06T06:50:01;8.57;;;7.67;;
17854;SDS011;9053;53.358;6.382;2023-04-06T06:52:33;10.10;;;7.70;;
17854;SDS011;9053;53.358;6.382;2023-04-06T06:55:06;12.23;;;9.50;;
17854;SDS011;9053;53.358;6.382;2023-04-06T06:57:37;11.03;;;8.23;;
17854;SDS011;9053;53.358;6.382;2023-04-06T07:00:09;10.23;;;8.53;;
17854;SDS011;9053;53.358;6.382;2023-04-06T07:02:40;10.93;;;8.30;;
17854;SDS011;9053;53.358;6.382;2023-04-06T07:05:11;10.07;;;8.50;;
17854;SDS011;9053;53.358;6.382;2023-04-06T07:07:52;12.80;;;9.07;;
17854;SDS011;9053;53.358;6.382;2023-04-06T07:10:27;10.63;;;8.47;;
17854;SDS011;9053;53.358;6.382;2023-04-06T07:12:57;10.50;;;8.57;;
17854;SDS011;9053;53.358;6.382;2023-04-06T07:15:27;10.47;;;8.70;;
17854;SDS011;9053;53.358;6.382;2023-04-06T07:17:57;10.93;;;8.83;;
17854;SDS011;9053;53.358;6.382;2023-04-06T07:20:28;10.50;;;8.43;;
17854;SDS011;9053;53.358;6.382;2023-04-06T07:23:01;10.23;;;8.17;;
17854;SDS011;9053;53.358;6.382;2023-04-06T07:25:34;9.30;;;7.97;;
17854;SDS011;9053;53.358;6.382;2023-04-06T07:28:04;11.27;;;8.27;;
17854;SDS011;9053;53.358;6.382;2023-04-06T07:30:34;8.47;;;7.57;;
17854;SDS011;9053;53.358;6.382;2023-04-06T07:33:04;11.47;;;8.43;;
17854;SDS011;9053;53.358;6.382;2023-04-06T07:35:36;8.57;;;7.77;;
17854;SDS011;9053;53.358;6.382;2023-04-06T07:38:07;9.13;;;7.87;;
17854;SDS011;9053;53.358;6.382;2023-04-06T07:40:39;12.37;;;9.07;;
17854;SDS011;9053;53.358;6.382;2023-04-06T07:43:09;11.77;;;10.07;;
17854;SDS011;9053;53.358;6.382;2023-04-06T07:45:41;9.23;;;8.10;;
17854;SDS011;9053;53.358;6.382;2023-04-06T07:48:11;11.57;;;8.53;;
17854;SDS011;9053;53.358;6.382;2023-04-06T07:50:41;11.43;;;8.50;;
17854;SDS011;9053;53.358;6.382;2023-04-06T07:53:12;10.90;;;8.73;;
17854;SDS011;9053;53.358;6.382;2023-04-06T07:55:45;9.73;;;8.23;;
17854;SDS011;9053;53.358;6.382;2023-04-06T07:58:15;10.77;;;8.97;;
17854;SDS011;9053;53.358;6.382;2023-04-06T08:00:46;10.67;;;9.03;;
17854;SDS011;9053;53.358;6.382;2023-04-06T08:03:17;12.50;;;8.77;;
17854;SDS011;9053;53.358;6.382;2023-04-06T08:05:49;9.73;;;8.73;;
17854;SDS011;9053;53.358;6.382;2023-04-06T08:08:19;12.63;;;9.20;;
17854;SDS011;9053;53.358;6.382;2023-04-06T08:10:52;10.73;;;8.63;;
17854;SDS011;9053;53.358;6.382;2023-04-06T08:13:21;12.23;;;9.33;;
17854;SDS011;9053;53.358;6.382;2023-04-06T08:15:53;11.67;;;9.10;;
17854;SDS011;9053;53.358;6.382;2023-04-06T08:18:23;9.25;;;7.00;;
17854;SDS011;9053;53.358;6.382;2023-04-06T08:20:54;10.93;;;8.37;;
17854;SDS011;9053;53.358;6.382;2023-04-06T08:23:24;8.32;;;7.53;;
17854;SDS011;9053;53.358;6.382;2023-04-06T08:25:56;10.63;;;8.02;;
17854;SDS011;9053;53.358;6.382;2023-04-06T08:28:26;11.13;;;8.17;;
17854;SDS011;9053;53.358;6.382;2023-04-06T08:30:56;11.13;;;8.20;;
17854;SDS011;9053;53.358;6.382;2023-04-06T08:33:26;9.40;;;7.70;;
17854;SDS011;9053;53.358;6.382;2023-04-06T08:35:56;9.82;;;8.38;;
17854;SDS011;9053;53.358;6.382;2023-04-06T08:38:29;9.23;;;7.45;;
17854;SDS011;9053;53.358;6.382;2023-04-06T08:41:01;10.23;;;7.82;;
17854;SDS011;9053;53.358;6.382;2023-04-06T08:43:38;8.30;;;7.40;;
17854;SDS011;9053;53.358;6.382;2023-04-06T08:46:12;10.82;;;8.00;;
17854;SDS011;9053;53.358;6.382;2023-04-06T08:48:44;10.07;;;7.80;;
17854;SDS011;9053;53.358;6.382;2023-04-06T08:51:16;10.55;;;8.57;;
17854;SDS011;9053;53.358;6.382;2023-04-06T08:53:48;10.05;;;7.75;;
17854;SDS011;9053;53.358;6.382;2023-04-06T08:56:23;9.00;;;7.40;;
17854;SDS011;9053;53.358;6.382;2023-04-06T08:58:54;10.18;;;7.97;;
17854;SDS011;9053;53.358;6.382;2023-04-06T09:01:27;9.43;;;7.80;;
17854;SDS011;9053;53.358;6.382;2023-04-06T09:04:00;11.38;;;8.10;;
17854;SDS011;9053;53.358;6.382;2023-04-06T09:06:34;14.80;;;8.75;;
17854;SDS011;9053;53.358;6.382;2023-04-06T09:09:05;9.93;;;7.75;;
17854;SDS011;9053;53.358;6.382;2023-04-06T09:11:47;10.93;;;7.85;;
17854;SDS011;9053;53.358;6.382;2023-04-06T09:14:32;10.73;;;8.82;;
17854;SDS011;9053;53.358;6.382;2023-04-06T09:17:04;10.13;;;7.85;;
17854;SDS011;9053;53.358;6.382;2023-04-06T09:19:34;10.40;;;8.25;;
17854;SDS011;9053;53.358;6.382;2023-04-06T09:22:18;9.45;;;8.18;;
17854;SDS011;9053;53.358;6.382;2023-04-06T09:24:50;9.90;;;7.78;;
17854;SDS011;9053;53.358;6.382;2023-04-06T09:27:32;10.57;;;8.50;;
17854;SDS011;9053;53.358;6.382;2023-04-06T09:30:04;13.35;;;9.07;;
17854;SDS011;9053;53.358;6.382;2023-04-06T09:32:46;12.38;;;8.98;;
17854;SDS011;9053;53.358;6.382;2023-04-06T09:35:17;9.95;;;7.78;;
17854;SDS011;9053;53.358;6.382;2023-04-06T09:37:48;9.63;;;7.90;;
17854;SDS011;9053;53.358;6.382;2023-04-06T09:40:20;12.15;;;9.30;;
17854;SDS011;9053;53.358;6.382;2023-04-06T09:42:53;10.23;;;7.95;;
17854;SDS011;9053;53.358;6.382;2023-04-06T09:45:25;9.13;;;7.43;;
17854;SDS011;9053;53.358;6.382;2023-04-06T09:47:58;9.77;;;8.00;;
17854;SDS011;9053;53.358;6.382;2023-04-06T09:50:29;10.77;;;8.30;;
17854;SDS011;9053;53.358;6.382;2023-04-06T09:53:00;10.32;;;8.20;;
17854;SDS011;9053;53.358;6.382;2023-04-06T09:55:33;10.48;;;8.68;;
17854;SDS011;9053;53.358;6.382;2023-04-06T09:58:10;12.02;;;8.82;;
17854;SDS011;9053;53.358;6.382;2023-04-06T10:00:47;12.05;;;9.02;;
17854;SDS011;9053;53.358;6.382;2023-04-06T10:03:25;12.10;;;9.32;;
17854;SDS011;9053;53.358;6.382;2023-04-06T10:06:05;11.43;;;9.07;;
17854;SDS011;9053;53.358;6.382;2023-04-06T10:08:42;11.60;;;8.50;;
17854;SDS011;9053;53.358;6.382;2023-04-06T10:11:17;13.50;;;8.85;;
17854;SDS011;9053;53.358;6.382;2023-04-06T10:13:50;10.82;;;8.32;;
17854;SDS011;9053;53.358;6.382;2023-04-06T10:16:20;16.90;;;9.75;;
17854;SDS011;9053;53.358;6.382;2023-04-06T10:18:52;13.50;;;10.32;;
17854;SDS011;9053;53.358;6.382;2023-04-06T10:21:25;16.85;;;10.43;;
17854;SDS011;9053;53.358;6.382;2023-04-06T10:23:58;14.55;;;10.85;;
17854;SDS011;9053;53.358;6.382;2023-04-06T10:26:29;16.85;;;10.95;;
17854;SDS011;9053;53.358;6.382;2023-04-06T10:29:04;14.23;;;9.95;;
17854;SDS011;9053;53.358;6.382;2023-04-06T10:31:38;14.23;;;10.02;;
17854;SDS011;9053;53.358;6.382;2023-04-06T10:34:11;15.15;;;11.05;;
17854;SDS011;9053;53.358;6.382;2023-04-06T10:36:41;13.93;;;10.43;;
17854;SDS011;9053;53.358;6.382;2023-04-06T10:39:11;14.85;;;10.60;;
17854;SDS011;9053;53.358;6.382;2023-04-06T10:41:41;14.35;;;10.52;;
17854;SDS011;9053;53.358;6.382;2023-04-06T10:44:20;15.23;;;11.20;;
17854;SDS011;9053;53.358;6.382;2023-04-06T10:46:54;12.68;;;9.15;;
17854;SDS011;9053;53.358;6.382;2023-04-06T10:49:29;14.13;;;11.27;;
17854;SDS011;9053;53.358;6.382;2023-04-06T10:51:59;16.30;;;11.82;;
17854;SDS011;9053;53.358;6.382;2023-04-06T10:54:29;15.18;;;11.57;;
17854;SDS011;9053;53.358;6.382;2023-04-06T10:56:59;15.73;;;11.35;;
17854;SDS011;9053;53.358;6.382;2023-04-06T10:59:35;15.60;;;11.32;;
17854;SDS011;9053;53.358;6.382;2023-04-06T11:02:05;15.85;;;11.30;;
17854;SDS011;9053;53.358;6.382;2023-04-06T11:04:35;18.45;;;12.13;;
17854;SDS011;9053;53.358;6.382;2023-04-06T11:07:07;17.35;;;13.63;;
17854;SDS011;9053;53.358;6.382;2023-04-06T11:09:37;18.58;;;13.50;;
17854;SDS011;9053;53.358;6.382;2023-04-06T11:12:07;19.92;;;13.75;;
17854;SDS011;9053;53.358;6.382;2023-04-06T11:14:40;15.93;;;12.70;;
17854;SDS011;9053;53.358;6.382;2023-04-06T11:17:10;26.92;;;17.90;;
17854;SDS011;9053;53.358;6.382;2023-04-06T11:19:40;24.95;;;16.42;;
17854;SDS011;9053;53.358;6.382;2023-04-06T11:22:10;26.98;;;19.90;;
17854;SDS011;9053;53.358;6.382;2023-04-06T11:24:41;22.73;;;15.95;;
17854;SDS011;9053;53.358;6.382;2023-04-06T11:27:11;26.20;;;17.90;;
17854;SDS011;9053;53.358;6.382;2023-04-06T11:29:49;23.38;;;16.48;;
17854;SDS011;9053;53.358;6.382;2023-04-06T11:32:22;23.05;;;15.98;;
17854;SDS011;9053;53.358;6.382;2023-04-06T11:34:52;25.98;;;17.60;;
17854;SDS011;9053;53.358;6.382;2023-04-06T11:37:25;26.05;;;17.65;;
17854;SDS011;9053;53.358;6.382;2023-04-06T11:39:55;24.00;;;17.85;;
17854;SDS011;9053;53.358;6.382;2023-04-06T11:42:29;28.67;;;19.13;;
17854;SDS011;9053;53.358;6.382;2023-04-06T11:45:04;29.00;;;19.55;;
17854;SDS011;9053;53.358;6.382;2023-04-06T11:47:37;23.70;;;17.27;;
17854;SDS011;9053;53.358;6.382;2023-04-06T11:50:10;35.92;;;20.02;;
17854;SDS011;9053;53.358;6.382;2023-04-06T11:52:42;22.70;;;16.85;;
17854;SDS011;9053;53.358;6.382;2023-04-06T11:55:12;27.35;;;19.33;;
17854;SDS011;9053;53.358;6.382;2023-04-06T11:57:43;28.08;;;20.08;;
17854;SDS011;9053;53.358;6.382;2023-04-06T12:00:16;26.00;;;18.52;;
17854;SDS011;9053;53.358;6.382;2023-04-06T12:02:47;26.85;;;19.58;;
17854;SDS011;9053;53.358;6.382;2023-04-06T12:05:18;24.98;;;18.85;;
17854;SDS011;9053;53.358;6.382;2023-04-06T12:07:49;28.85;;;19.95;;
17854;SDS011;9053;53.358;6.382;2023-04-06T12:10:19;25.63;;;18.83;;
17854;SDS011;9053;53.358;6.382;2023-04-06T12:12:49;28.15;;;19.15;;
17854;SDS011;9053;53.358;6.382;2023-04-06T12:15:21;25.75;;;18.98;;
17854;SDS011;9053;53.358;6.382;2023-04-06T12:17:53;24.80;;;18.40;;
17854;SDS011;9053;53.358;6.382;2023-04-06T12:20:23;27.17;;;18.63;;
17854;SDS011;9053;53.358;6.382;2023-04-06T12:22:53;22.38;;;16.77;;
17854;SDS011;9053;53.358;6.382;2023-04-06T12:25:23;24.65;;;17.17;;
17854;SDS011;9053;53.358;6.382;2023-04-06T12:27:53;23.83;;;17.15;;
17854;SDS011;9053;53.358;6.382;2023-04-06T12:30:25;22.23;;;16.10;;
17854;SDS011;9053;53.358;6.382;2023-04-06T12:32:55;24.35;;;17.10;;
17854;SDS011;9053;53.358;6.382;2023-04-06T12:35:25;25.65;;;18.25;;
17854;SDS011;9053;53.358;6.382;2023-04-06T12:37:55;22.67;;;16.75;;
17854;SDS011;9053;53.358;6.382;2023-04-06T12:40:29;23.33;;;16.73;;
17854;SDS011;9053;53.358;6.382;2023-04-06T12:42:59;24.58;;;18.25;;
17854;SDS011;9053;53.358;6.382;2023-04-06T12:45:32;24.00;;;17.58;;
17854;SDS011;9053;53.358;6.382;2023-04-06T12:48:02;25.20;;;18.10;;
17854;SDS011;9053;53.358;6.382;2023-04-06T12:50:33;25.92;;;18.27;;
17854;SDS011;9053;53.358;6.382;2023-04-06T12:53:03;26.60;;;19.20;;
17854;SDS011;9053;53.358;6.382;2023-04-06T12:55:33;23.30;;;16.67;;
17854;SDS011;9053;53.358;6.382;2023-04-06T12:58:03;23.23;;;16.63;;
17854;SDS011;9053;53.358;6.382;2023-04-06T13:00:35;27.00;;;19.00;;
17854;SDS011;9053;53.358;6.382;2023-04-06T13:03:05;29.52;;;19.23;;
17854;SDS011;9053;53.358;6.382;2023-04-06T13:05:36;25.10;;;18.48;;
17854;SDS011;9053;53.358;6.382;2023-04-06T13:08:13;24.15;;;16.48;;
17854;SDS011;9053;53.358;6.382;2023-04-06T13:10:44;27.77;;;18.23;;
17854;SDS011;9053;53.358;6.382;2023-04-06T13:13:17;20.45;;;15.93;;
17854;SDS011;9053;53.358;6.382;2023-04-06T13:15:53;24.25;;;17.50;;
17854;SDS011;9053;53.358;6.382;2023-04-06T13:18:24;24.48;;;17.52;;
17854;SDS011;9053;53.358;6.382;2023-04-06T13:20:55;24.92;;;17.80;;
17854;SDS011;9053;53.358;6.382;2023-04-06T13:23:25;23.48;;;16.23;;
17854;SDS011;9053;53.358;6.382;2023-04-06T13:25:59;23.77;;;16.73;;
17854;SDS011;9053;53.358;6.382;2023-04-06T13:28:32;21.60;;;15.57;;
17854;SDS011;9053;53.358;6.382;2023-04-06T13:31:06;24.10;;;16.15;;
17854;SDS011;9053;53.358;6.382;2023-04-06T13:33:37;25.75;;;17.63;;
17854;SDS011;9053;53.358;6.382;2023-04-06T13:36:08;22.98;;;16.75;;
17854;SDS011;9053;53.358;6.382;2023-04-06T13:38:38;23.25;;;17.13;;
17854;SDS011;9053;53.358;6.382;2023-04-06T13:41:08;24.63;;;18.55;;
17854;SDS011;9053;53.358;6.382;2023-04-06T13:43:38;23.77;;;17.60;;
17854;SDS011;9053;53.358;6.382;2023-04-06T13:46:10;20.25;;;15.25;;
17854;SDS011;9053;53.358;6.382;2023-04-06T13:48:40;19.40;;;14.20;;
17854;SDS011;9053;53.358;6.382;2023-04-06T13:51:10;24.45;;;18.23;;
17854;SDS011;9053;53.358;6.382;2023-04-06T13:53:41;17.00;;;13.20;;
17854;SDS011;9053;53.358;6.382;2023-04-06T13:56:12;15.07;;;11.85;;
17854;SDS011;9053;53.358;6.382;2023-04-06T13:58:41;16.20;;;11.50;;
17854;SDS011;9053;53.358;6.382;2023-04-06T14:01:14;16.52;;;12.00;;
17854;SDS011;9053;53.358;6.382;2023-04-06T14:03:44;15.25;;;10.82;;
17854;SDS011;9053;53.358;6.382;2023-04-06T14:06:15;14.57;;;11.02;;
17854;SDS011;9053;53.358;6.382;2023-04-06T14:08:57;14.73;;;9.07;;
17854;SDS011;9053;53.358;6.382;2023-04-06T14:11:27;13.52;;;9.48;;
17854;SDS011;9053;53.358;6.382;2023-04-06T14:13:58;12.05;;;8.65;;
17854;SDS011;9053;53.358;6.382;2023-04-06T14:16:31;12.90;;;9.20;;
17854;SDS011;9053;53.358;6.382;2023-04-06T14:19:01;12.23;;;8.27;;
17854;SDS011;9053;53.358;6.382;2023-04-06T14:21:31;9.95;;;8.05;;
17854;SDS011;9053;53.358;6.382;2023-04-06T14:24:00;9.32;;;7.53;;
17854;SDS011;9053;53.358;6.382;2023-04-06T14:26:30;10.13;;;7.82;;
17854;SDS011;9053;53.358;6.382;2023-04-06T14:29:01;12.00;;;8.85;;
17854;SDS011;9053;53.358;6.382;2023-04-06T14:31:34;12.60;;;9.43;;
17854;SDS011;9053;53.358;6.382;2023-04-06T14:34:04;12.25;;;9.55;;
17854;SDS011;9053;53.358;6.382;2023-04-06T14:36:36;13.90;;;8.65;;
17854;SDS011;9053;53.358;6.382;2023-04-06T14:39:06;13.02;;;9.88;;
17854;SDS011;9053;53.358;6.382;2023-04-06T14:41:37;12.85;;;9.75;;
17854;SDS011;9053;53.358;6.382;2023-04-06T14:44:07;14.90;;;10.43;;
17854;SDS011;9053;53.358;6.382;2023-04-06T14:46:41;14.02;;;10.02;;
17854;SDS011;9053;53.358;6.382;2023-04-06T14:49:11;12.43;;;9.10;;
17854;SDS011;9053;53.358;6.382;2023-04-06T14:51:41;13.32;;;9.98;;
17854;SDS011;9053;53.358;6.382;2023-04-06T14:54:11;14.10;;;9.93;;
17854;SDS011;9053;53.358;6.382;2023-04-06T14:56:40;15.30;;;10.57;;
17854;SDS011;9053;53.358;6.382;2023-04-06T14:59:10;14.80;;;10.70;;
17854;SDS011;9053;53.358;6.382;2023-04-06T15:01:43;14.27;;;9.68;;
17854;SDS011;9053;53.358;6.382;2023-04-06T15:04:14;14.25;;;10.75;;
17854;SDS011;9053;53.358;6.382;2023-04-06T15:06:45;13.02;;;9.95;;
17854;SDS011;9053;53.358;6.382;2023-04-06T15:09:14;12.88;;;10.23;;